Time;durP1;ratioP1;P1;durP2;ratioP2;P2;SDS_P1;SDS_P2;PMS_P1;PMS_P2;Temp;Humidity;BMP_temperature;BMP_pressure;BME280_temperature;BME280_humidity;BME280_pressure;Samples;Min_cycle;Max_cycle;Signal;HPM_P1;HPM_P2
2024/01/18 00:02:09;;;;;;;;;;;19.00;38.60;;;;;;5073865;28;19959;-56
2024/01/18 00:04:36;;;;;;;;;;;19.00;38.60;;;;;;5057197;28;19936;-53
2024/01/18 00:07:03;;;;;;;;;;;19.00;38.60;;;;;;5054010;28;19925;-53
2024/01/18 00:09:31;;;;;;;;;;;19.00;38.50;;;;;;5051344;28;19921;-58
2024/01/18 00:11:58;;;;;;;;;;;19.10;38.70;;;;;;5053113;28;19925;-59
2024/01/18 00:14:24;;;;;;;;;;;19.00;38.50;;;;;;5070901;28;19932;-55
2024/01/18 00:16:51;;;;;;;;;;;19.00;38.50;;;;;;5070800;28;19927;-57
2024/01/18 00:19:18;;;;;;;;;;;19.00;38.60;;;;;;5046595;28;19921;-54
2024/01/18 00:21:45;;;;;;;;;;;19.00;38.50;;;;;;5054179;28;19937;-54
2024/01/18 00:24:12;;;;;;;;;;;19.00;38.50;;;;;;5056828;28;19970;-51
2024/01/18 00:26:40;;;;;;;;;;;19.00;38.50;;;;;;5071851;28;19932;-51
2024/01/18 00:29:07;;;;;;;;;;;19.00;38.50;;;;;;5064712;28;19920;-52
2024/01/18 00:31:34;;;;;;;;;;;19.00;38.50;;;;;;5038999;28;19920;-54
2024/01/18 00:34:00;;;;;;;;;;;19.00;38.50;;;;;;5070865;28;19974;-55
2024/01/18 00:36:27;;;;;;;;;;;19.00;38.50;;;;;;5050892;28;19925;-54
2024/01/18 00:38:54;;;;;;;;;;;19.00;38.50;;;;;;5055334;28;19927;-54
2024/01/18 00:41:21;;;;;;;;;;;19.00;38.40;;;;;;5073793;28;19921;-54
2024/01/18 00:43:49;;;;;;;;;;;19.00;38.50;;;;;;5069689;28;19966;-54
2024/01/18 00:46:18;;;;;;;;;;;19.00;38.40;;;;;;5074065;28;19943;-54
2024/01/18 00:48:45;;;;;;;;;;;19.00;38.40;;;;;;5065329;28;19924;-54
2024/01/18 00:51:12;;;;;;;;;;;19.00;38.30;;;;;;5072676;28;19939;-59
2024/01/18 00:53:39;;;;;;;;;;;19.00;38.30;;;;;;5072519;28;19970;-55
2024/01/18 00:56:09;;;;;;;;;;;19.00;38.40;;;;;;5055569;28;19926;-54
2024/01/18 00:58:36;;;;;;;;;;;19.00;38.40;;;;;;5072061;28;19924;-52
2024/01/18 01:01:04;;;;;;;;;;;19.00;38.40;;;;;;5055635;28;20004;-51
2024/01/18 01:03:31;;;;;;;;;;;19.00;38.30;;;;;;5055009;28;19920;-52
2024/01/18 01:05:58;;;;;;;;;;;19.00;38.30;;;;;;5054145;28;20005;-54
2024/01/18 01:08:25;;;;;;;;;;;19.00;38.30;;;;;;5058263;28;19928;-51
2024/01/18 01:10:52;;;;;;;;;;;19.00;38.40;;;;;;5054517;28;19920;-52
2024/01/18 01:13:19;;;;;;;;;;;19.00;38.30;;;;;;5055350;28;19974;-50
2024/01/18 01:15:46;;;;;;;;;;;19.00;38.30;;;;;;5053882;28;19956;-52
2024/01/18 01:18:14;;;;;;;;;;;19.00;38.30;;;;;;5072561;28;19920;-53
2024/01/18 01:20:40;;;;;;;;;;;19.00;38.30;;;;;;5071070;28;19920;-53
2024/01/18 01:23:07;;;;;;;;;;;19.00;38.30;;;;;;5072244;28;19946;-53
2024/01/18 01:25:34;;;;;;;;;;;19.00;38.30;;;;;;5036949;28;19927;-53
2024/01/18 01:28:01;;;;;;;;;;;19.00;38.30;;;;;;5072492;28;19920;-54
2024/01/18 01:30:27;;;;;;;;;;;19.00;38.30;;;;;;5072952;28;19929;-55
2024/01/18 01:32:54;;;;;;;;;;;19.00;38.30;;;;;;5069143;28;19928;-49
2024/01/18 01:35:22;;;;;;;;;;;19.00;38.30;;;;;;5071859;28;19920;-53
2024/01/18 01:37:49;;;;;;;;;;;19.00;38.30;;;;;;5071316;28;19920;-53
2024/01/18 01:40:16;;;;;;;;;;;19.00;38.30;;;;;;5052735;28;19973;-54
2024/01/18 01:42:43;;;;;;;;;;;19.00;38.30;;;;;;5054537;28;19970;-59
2024/01/18 01:45:10;;;;;;;;;;;19.00;38.30;;;;;;5071069;28;19925;-55
2024/01/18 01:47:37;;;;;;;;;;;19.00;38.30;;;;;;5054630;28;19978;-54
2024/01/18 01:50:03;;;;;;;;;;;19.00;38.30;;;;;;5071740;28;19947;-50
2024/01/18 01:52:32;;;;;;;;;;;19.00;38.30;;;;;;5072397;28;19924;-54
2024/01/18 01:54:59;;;;;;;;;;;19.00;38.30;;;;;;5067802;28;19920;-53
2024/01/18 01:57:26;;;;;;;;;;;19.00;38.30;;;;;;5053676;28;19920;-57
2024/01/18 01:59:52;;;;;;;;;;;19.00;38.30;;;;;;5067914;28;19924;-54
2024/01/18 02:02:19;;;;;;;;;;;19.00;38.20;;;;;;5072796;28;19928;-55
2024/01/18 02:04:46;;;;;;;;;;;19.00;38.20;;;;;;5067354;28;19920;-55
2024/01/18 02:07:13;;;;;;;;;;;19.00;38.20;;;;;;5070518;28;19920;-50
2024/01/18 02:09:41;;;;;;;;;;;19.00;38.20;;;;;;5055241;28;19946;-54
2024/01/18 02:12:08;;;;;;;;;;;19.00;38.20;;;;;;5036572;28;20283;-54
2024/01/18 02:14:35;;;;;;;;;;;19.00;38.20;;;;;;5047564;28;19920;-56
2024/01/18 02:17:03;;;;;;;;;;;19.00;38.20;;;;;;5041632;28;19970;-52
2024/01/18 02:19:30;;;;;;;;;;;19.00;38.10;;;;;;5057007;28;19959;-53
2024/01/18 02:21:57;;;;;;;;;;;19.00;38.20;;;;;;5067299;28;19924;-49
2024/01/18 02:24:29;;;;;;;;;;;19.00;38.10;;;;;;5069170;28;19920;-54
2024/01/18 02:26:57;;;;;;;;;;;19.00;38.10;;;;;;5065142;28;19927;-51
2024/01/18 02:29:23;;;;;;;;;;;19.00;38.10;;;;;;5055865;28;19921;-49
2024/01/18 02:31:50;;;;;;;;;;;19.00;38.10;;;;;;5065211;28;19920;-52
2024/01/18 02:34:17;;;;;;;;;;;19.00;38.10;;;;;;5090269;28;19927;-52
2024/01/18 02:36:44;;;;;;;;;;;19.00;38.00;;;;;;5081284;28;19978;-53
2024/01/18 02:39:11;;;;;;;;;;;18.90;38.00;;;;;;5070473;28;19920;-53
2024/01/18 02:41:37;;;;;;;;;;;19.00;38.00;;;;;;5084643;28;19955;-51
2024/01/18 02:44:05;;;;;;;;;;;19.00;38.00;;;;;;5092048;28;19920;-48
2024/01/18 02:46:33;;;;;;;;;;;19.00;38.00;;;;;;5059030;28;19920;-51
2024/01/18 02:48:59;;;;;;;;;;;19.00;38.00;;;;;;5092946;28;19986;-50
2024/01/18 02:51:26;;;;;;;;;;;19.00;38.00;;;;;;5065196;28;19920;-49
2024/01/18 02:53:53;;;;;;;;;;;18.90;37.90;;;;;;5067407;28;19979;-53
2024/01/18 02:56:21;;;;;;;;;;;19.00;38.00;;;;;;5069141;28;19924;-47
2024/01/18 02:58:47;;;;;;;;;;;19.00;37.90;;;;;;5073664;28;19968;-53
2024/01/18 03:01:15;;;;;;;;;;;18.90;37.80;;;;;;5083035;28;19950;-53
2024/01/18 03:03:42;;;;;;;;;;;19.00;38.00;;;;;;5065565;28;19921;-54
2024/01/18 03:06:09;;;;;;;;;;;19.00;37.90;;;;;;5060146;28;19928;-50
2024/01/18 03:08:36;;;;;;;;;;;19.00;37.90;;;;;;5071436;28;19920;-50
2024/01/18 03:11:03;;;;;;;;;;;19.00;37.90;;;;;;5093200;28;19927;-50
2024/01/18 03:13:29;;;;;;;;;;;19.00;37.90;;;;;;5080382;28;19951;-54
2024/01/18 03:15:56;;;;;;;;;;;19.00;37.90;;;;;;5048995;28;19920;-52
2024/01/18 03:18:24;;;;;;;;;;;19.00;37.80;;;;;;5096973;28;19924;-54
2024/01/18 03:20:51;;;;;;;;;;;19.00;37.90;;;;;;5082428;28;19924;-54
2024/01/18 03:23:18;;;;;;;;;;;19.00;37.80;;;;;;5086774;28;19920;-50
2024/01/18 03:25:44;;;;;;;;;;;19.00;37.90;;;;;;5064672;28;19924;-49
2024/01/18 03:28:11;;;;;;;;;;;19.00;37.90;;;;;;5076938;28;19920;-51
2024/01/18 03:30:38;;;;;;;;;;;19.00;37.90;;;;;;5066114;28;19966;-54
2024/01/18 03:33:05;;;;;;;;;;;19.00;38.50;;;;;;5066130;28;19927;-52
2024/01/18 03:35:33;;;;;;;;;;;18.90;37.80;;;;;;5066605;28;19945;-50
2024/01/18 03:38:00;;;;;;;;;;;19.00;37.90;;;;;;5083461;28;19931;-49
2024/01/18 03:40:27;;;;;;;;;;;19.00;37.90;;;;;;5081697;28;19985;-52
2024/01/18 03:42:53;;;;;;;;;;;19.00;37.90;;;;;;5091215;28;19932;-52
2024/01/18 03:45:22;;;;;;;;;;;19.00;37.90;;;;;;5075389;28;20194;-51
2024/01/18 03:47:49;;;;;;;;;;;19.00;37.80;;;;;;5074429;28;19920;-53
2024/01/18 03:50:15;;;;;;;;;;;19.00;37.90;;;;;;5068653;28;19928;-53
2024/01/18 03:52:44;;;;;;;;;;;19.00;37.80;;;;;;5054375;28;19921;-52
2024/01/18 03:55:11;;;;;;;;;;;19.00;37.80;;;;;;5090596;28;19920;-48
2024/01/18 03:57:39;;;;;;;;;;;19.00;37.80;;;;;;5057097;28;19956;-54
2024/01/18 04:00:06;;;;;;;;;;;18.90;37.70;;;;;;5042218;28;19921;-55
2024/01/18 04:02:33;;;;;;;;;;;19.00;37.80;;;;;;5076647;28;19962;-53
2024/01/18 04:05:00;;;;;;;;;;;19.00;37.80;;;;;;5077198;28;19924;-54
2024/01/18 04:07:27;;;;;;;;;;;19.00;37.80;;;;;;5069376;28;19920;-53
2024/01/18 04:09:55;;;;;;;;;;;18.90;37.70;;;;;;5092165;28;19927;-51
2024/01/18 04:12:22;;;;;;;;;;;18.90;37.70;;;;;;5063189;28;19920;-49
2024/01/18 04:14:48;;;;;;;;;;;18.90;37.70;;;;;;5089487;28;19920;-51
2024/01/18 04:17:15;;;;;;;;;;;19.00;37.70;;;;;;5071896;28;19920;-53
2024/01/18 04:19:42;;;;;;;;;;;19.00;37.70;;;;;;5085835;28;19974;-53
2024/01/18 04:22:09;;;;;;;;;;;19.00;37.70;;;;;;5062290;28;19942;-54
2024/01/18 04:24:36;;;;;;;;;;;19.00;37.70;;;;;;5093396;28;19920;-52
2024/01/18 04:27:04;;;;;;;;;;;19.00;37.70;;;;;;5070524;28;19924;-50
2024/01/18 04:29:31;;;;;;;;;;;19.00;37.60;;;;;;5081911;28;19974;-53
2024/01/18 04:31:58;;;;;;;;;;;18.90;37.60;;;;;;5064807;28;20029;-53
2024/01/18 04:34:25;;;;;;;;;;;18.90;37.60;;;;;;5085197;28;19920;-54
2024/01/18 04:36:52;;;;;;;;;;;19.00;37.60;;;;;;5067415;28;19928;-53
2024/01/18 04:39:18;;;;;;;;;;;18.90;37.50;;;;;;5063758;28;19970;-56
2024/01/18 04:41:45;;;;;;;;;;;18.90;37.50;;;;;;5065080;28;19920;-52
2024/01/18 04:44:13;;;;;;;;;;;18.90;37.50;;;;;;5061347;28;19920;-50
2024/01/18 04:46:40;;;;;;;;;;;18.90;37.40;;;;;;5066185;28;19930;-51
2024/01/18 04:49:07;;;;;;;;;;;18.90;37.40;;;;;;5068634;28;19928;-50
2024/01/18 04:51:33;;;;;;;;;;;18.90;37.40;;;;;;5092427;28;19920;-54
2024/01/18 04:54:00;;;;;;;;;;;18.90;37.40;;;;;;5071220;28;19931;-52
2024/01/18 04:56:27;;;;;;;;;;;18.90;37.40;;;;;;5075949;28;19921;-53
2024/01/18 04:58:53;;;;;;;;;;;18.90;37.30;;;;;;5057700;28;19966;-49
2024/01/18 05:01:22;;;;;;;;;;;18.90;37.30;;;;;;5062151;28;19924;-53
2024/01/18 05:03:48;;;;;;;;;;;18.90;37.30;;;;;;5055279;28;19920;-53
2024/01/18 05:06:15;;;;;;;;;;;18.90;37.30;;;;;;5058900;28;19920;-51
2024/01/18 05:08:42;;;;;;;;;;;18.90;37.30;;;;;;5056761;28;19924;-52
2024/01/18 05:11:09;;;;;;;;;;;18.90;37.30;;;;;;5073256;28;19928;-52
2024/01/18 05:13:35;;;;;;;;;;;18.90;37.20;;;;;;5075129;28;19921;-50
2024/01/18 05:16:02;;;;;;;;;;;18.90;37.30;;;;;;5059314;28;19920;-50
2024/01/18 05:18:30;;;;;;;;;;;18.90;37.30;;;;;;5046218;28;19920;-52
2024/01/18 05:20:57;;;;;;;;;;;18.90;37.20;;;;;;5056658;28;19920;-54
2024/01/18 05:23:24;;;;;;;;;;;18.90;37.30;;;;;;5059270;28;19940;-56
2024/01/18 05:25:50;;;;;;;;;;;18.90;37.30;;;;;;5057728;28;19928;-57
2024/01/18 05:28:17;;;;;;;;;;;18.90;37.30;;;;;;5072061;28;19925;-55
2024/01/18 05:30:44;;;;;;;;;;;18.90;37.40;;;;;;5079477;28;19932;-53
2024/01/18 05:33:11;;;;;;;;;;;18.90;37.40;;;;;;5074899;28;19939;-57
2024/01/18 05:35:39;;;;;;;;;;;18.90;37.40;;;;;;5057911;28;19936;-51
2024/01/18 05:38:06;;;;;;;;;;;18.90;37.40;;;;;;5053491;28;19928;-56
2024/01/18 05:40:33;;;;;;;;;;;18.90;37.30;;;;;;5056561;28;19989;-54
2024/01/18 05:42:59;;;;;;;;;;;18.90;38.00;;;;;;5055463;28;20144;-56
2024/01/18 05:45:26;;;;;;;;;;;18.90;37.40;;;;;;5052001;28;19924;-54
2024/01/18 05:47:53;;;;;;;;;;;18.90;37.40;;;;;;5050985;28;21297;-55
2024/01/18 05:50:20;;;;;;;;;;;18.90;37.40;;;;;;5072374;28;20002;-51
2024/01/18 05:52:48;;;;;;;;;;;18.90;37.40;;;;;;5050646;28;19921;-50
2024/01/18 05:55:15;;;;;;;;;;;18.90;37.40;;;;;;5037198;28;19924;-52
2024/01/18 05:57:42;;;;;;;;;;;18.90;37.30;;;;;;5060547;28;19929;-49
2024/01/18 06:00:10;;;;;;;;;;;18.90;37.30;;;;;;5052475;28;20007;-57
2024/01/18 06:02:37;;;;;;;;;;;18.90;37.30;;;;;;5050250;28;19924;-53
2024/01/18 06:05:04;;;;;;;;;;;18.90;37.30;;;;;;5046127;28;19974;-52
2024/01/18 06:07:30;;;;;;;;;;;18.90;37.80;;;;;;5048201;28;20034;-54
2024/01/18 06:09:59;;;;;;;;;;;18.90;37.20;;;;;;5071097;28;19932;-56
2024/01/18 06:12:26;;;;;;;;;;;18.90;37.20;;;;;;5055454;28;19928;-52
2024/01/18 06:14:53;;;;;;;;;;;18.90;37.20;;;;;;5077176;28;19970;-52
2024/01/18 06:17:19;;;;;;;;;;;18.90;37.20;;;;;;5062371;28;19921;-53
2024/01/18 06:19:46;;;;;;;;;;;18.90;37.20;;;;;;5070446;28;20021;-52
2024/01/18 06:22:13;;;;;;;;;;;18.90;37.30;;;;;;5070688;28;20013;-51
2024/01/18 06:24:39;;;;;;;;;;;18.90;37.20;;;;;;5072517;28;19927;-51
2024/01/18 06:27:08;;;;;;;;;;;18.90;37.30;;;;;;5053771;28;19920;-53
2024/01/18 06:29:36;;;;;;;;;;;18.90;37.30;;;;;;5056412;28;19966;-52
2024/01/18 06:32:03;;;;;;;;;;;18.90;37.30;;;;;;5054819;28;19924;-52
2024/01/18 06:34:30;;;;;;;;;;;18.90;37.40;;;;;;5056713;28;19963;-54
2024/01/18 06:36:56;;;;;;;;;;;18.90;37.40;;;;;;5055105;28;19924;-50
2024/01/18 06:39:23;;;;;;;;;;;18.90;37.40;;;;;;5045081;28;19924;-53
2024/01/18 06:41:50;;;;;;;;;;;18.90;37.40;;;;;;5044990;28;19924;-53
2024/01/18 06:44:18;;;;;;;;;;;18.90;37.40;;;;;;5047094;28;19920;-53
2024/01/18 06:46:44;;;;;;;;;;;18.90;37.40;;;;;;5052250;28;19959;-54
2024/01/18 06:49:11;;;;;;;;;;;18.90;37.40;;;;;;5047939;28;19974;-52
2024/01/18 06:51:39;;;;;;;;;;;18.90;37.40;;;;;;5046371;28;19928;-50
2024/01/18 06:54:06;;;;;;;;;;;18.90;37.40;;;;;;5071238;28;20015;-52
2024/01/18 06:56:32;;;;;;;;;;;18.90;37.40;;;;;;5057141;28;19982;-51
2024/01/18 06:59:01;;;;;;;;;;;18.90;37.30;;;;;;5057078;28;19921;-49
2024/01/18 07:01:29;;;;;;;;;;;18.90;37.40;;;;;;5070179;28;20003;-52
2024/01/18 07:03:56;;;;;;;;;;;18.90;37.30;;;;;;5053243;28;19921;-51
2024/01/18 07:06:22;;;;;;;;;;;18.90;37.30;;;;;;5054188;28;19970;-51
2024/01/18 07:08:50;;;;;;;;;;;18.90;37.30;;;;;;5072284;28;19920;-54
2024/01/18 07:11:18;;;;;;;;;;;18.90;37.30;;;;;;5048540;28;19927;-52
2024/01/18 07:13:44;;;;;;;;;;;18.90;37.30;;;;;;5044824;28;20048;-52
2024/01/18 07:16:11;;;;;;;;;;;18.90;37.20;;;;;;5072836;28;19920;-48
2024/01/18 07:18:39;;;;;;;;;;;18.90;37.20;;;;;;5054478;28;19924;-48
2024/01/18 07:21:06;;;;;;;;;;;18.90;37.20;;;;;;5059506;28;19970;-53
2024/01/18 07:23:33;;;;;;;;;;;18.90;37.30;;;;;;5073595;28;19924;-51
2024/01/18 07:26:00;;;;;;;;;;;18.90;37.30;;;;;;5074816;28;19921;-52
2024/01/18 07:28:26;;;;;;;;;;;18.90;37.30;;;;;;5057125;28;19924;-50
2024/01/18 07:30:53;;;;;;;;;;;18.90;37.30;;;;;;5051352;28;19928;-53
2024/01/18 07:33:20;;;;;;;;;;;18.90;37.30;;;;;;5075423;28;19921;-53
2024/01/18 07:35:48;;;;;;;;;;;18.90;37.30;;;;;;5072867;28;19920;-53
2024/01/18 07:38:15;;;;;;;;;;;18.90;37.30;;;;;;5047361;28;19920;-51
2024/01/18 07:40:42;;;;;;;;;;;18.80;37.10;;;;;;5066104;28;19967;-51
2024/01/18 07:43:09;;;;;;;;;;;18.90;37.20;;;;;;5059399;28;19920;-56
2024/01/18 07:45:36;;;;;;;;;;;18.90;37.30;;;;;;5052244;28;19928;-52
2024/01/18 07:48:02;;;;;;;;;;;18.90;37.30;;;;;;5072906;28;19921;-47
2024/01/18 07:50:29;;;;;;;;;;;18.90;37.30;;;;;;5068556;28;19928;-54
2024/01/18 07:52:57;;;;;;;;;;;18.90;37.30;;;;;;5072941;28;19921;-55
2024/01/18 07:55:24;;;;;;;;;;;18.90;37.40;;;;;;5071350;28;20099;-52
2024/01/18 07:57:51;;;;;;;;;;;18.90;37.40;;;;;;5054473;28;19925;-51
2024/01/18 08:00:18;;;;;;;;;;;18.90;37.50;;;;;;5070938;28;20054;-52
2024/01/18 08:02:45;;;;;;;;;;;18.90;37.50;;;;;;5054225;28;19943;-51
2024/01/18 08:05:12;;;;;;;;;;;18.90;37.50;;;;;;5054026;28;19932;-50
2024/01/18 08:07:39;;;;;;;;;;;18.90;37.50;;;;;;5070828;28;19920;-53
2024/01/18 08:10:09;;;;;;;;;;;18.90;37.60;;;;;;5053599;28;19925;-46
2024/01/18 08:12:35;;;;;;;;;;;19.00;37.70;;;;;;5066209;28;19959;-47
2024/01/18 08:15:02;;;;;;;;;;;19.00;37.70;;;;;;5053353;28;19995;-47
2024/01/18 08:17:29;;;;;;;;;;;19.00;37.80;;;;;;5050267;28;19931;-56
2024/01/18 08:19:56;;;;;;;;;;;19.00;37.80;;;;;;5050854;28;19927;-48
2024/01/18 08:22:22;;;;;;;;;;;19.00;37.80;;;;;;5054002;28;19924;-54
2024/01/18 08:24:49;;;;;;;;;;;19.00;37.80;;;;;;5052845;28;19921;-55
2024/01/18 08:27:17;;;;;;;;;;;19.00;37.80;;;;;;5048016;28;19920;-55
2024/01/18 08:29:44;;;;;;;;;;;19.00;37.90;;;;;;5070769;28;19937;-53
2024/01/18 08:32:11;;;;;;;;;;;19.00;37.90;;;;;;5050054;28;19927;-54
2024/01/18 08:34:37;;;;;;;;;;;19.00;37.90;;;;;;5052703;28;19921;-53
2024/01/18 08:37:05;;;;;;;;;;;19.00;37.90;;;;;;5060180;28;19928;-50
2024/01/18 08:39:31;;;;;;;;;;;19.10;38.00;;;;;;5065086;28;19932;-51
2024/01/18 08:41:59;;;;;;;;;;;19.10;38.00;;;;;;5067374;28;19929;-51
2024/01/18 08:44:29;;;;;;;;;;;19.10;38.00;;;;;;5056904;28;20015;-53
2024/01/18 08:46:55;;;;;;;;;;;19.10;38.00;;;;;;5069021;28;19955;-53
2024/01/18 08:49:24;;;;;;;;;;;19.10;38.00;;;;;;5060941;28;19959;-53
2024/01/18 08:51:52;;;;;;;;;;;19.10;38.00;;;;;;5055194;28;19924;-54
2024/01/18 08:54:20;;;;;;;;;;;19.10;38.00;;;;;;5071164;28;19924;-52
2024/01/18 08:56:47;;;;;;;;;;;19.10;38.00;;;;;;5055091;28;19927;-51
2024/01/18 08:59:14;;;;;;;;;;;19.10;38.00;;;;;;5054281;28;19933;-53
2024/01/18 09:01:42;;;;;;;;;;;19.10;38.10;;;;;;5070294;28;19920;-50
2024/01/18 09:04:09;;;;;;;;;;;19.10;38.10;;;;;;5055171;28;19928;-53
2024/01/18 09:06:36;;;;;;;;;;;19.10;38.10;;;;;;5071002;28;19954;-54
2024/01/18 09:09:03;;;;;;;;;;;19.20;38.20;;;;;;5061692;28;19925;-54
2024/01/18 09:11:30;;;;;;;;;;;19.20;38.70;;;;;;5051336;28;19929;-50
2024/01/18 09:13:57;;;;;;;;;;;19.10;38.10;;;;;;5052368;28;19924;-49
2024/01/18 09:16:23;;;;;;;;;;;19.20;38.30;;;;;;5069558;28;19924;-54
2024/01/18 09:18:51;;;;;;;;;;;19.20;38.30;;;;;;5060986;28;19928;-52
2024/01/18 09:21:18;;;;;;;;;;;19.20;38.30;;;;;;5052168;28;19925;-53
2024/01/18 09:23:45;;;;;;;;;;;19.20;38.30;;;;;;5052228;28;19971;-50
2024/01/18 09:26:12;;;;;;;;;;;19.20;38.30;;;;;;5050266;28;19967;-54
2024/01/18 09:28:39;;;;;;;;;;;19.20;38.30;;;;;;5054166;28;19956;-54
2024/01/18 09:31:05;;;;;;;;;;;19.20;38.30;;;;;;5049146;28;19970;-56
2024/01/18 09:33:32;;;;;;;;;;;19.20;38.40;;;;;;5056882;28;19935;-57
2024/01/18 09:36:01;;;;;;;;;;;19.20;38.30;;;;;;5052300;28;19924;-53
2024/01/18 09:38:29;;;;;;;;;;;19.20;38.40;;;;;;5047098;28;19925;-52
2024/01/18 09:40:57;;;;;;;;;;;19.20;38.40;;;;;;5047503;28;19970;-56
2024/01/18 09:43:24;;;;;;;;;;;19.30;38.50;;;;;;5068971;28;19924;-56
2024/01/18 09:45:50;;;;;;;;;;;19.20;38.50;;;;;;5053385;28;20241;-57
2024/01/18 09:48:17;;;;;;;;;;;19.30;38.50;;;;;;5052139;28;19974;-48
2024/01/18 09:50:43;;;;;;;;;;;19.30;38.50;;;;;;5064594;28;19960;-49
2024/01/18 09:53:11;;;;;;;;;;;19.30;38.50;;;;;;5050058;28;19933;-55
2024/01/18 09:55:38;;;;;;;;;;;19.30;38.60;;;;;;5055441;28;19920;-54
2024/01/18 09:58:05;;;;;;;;;;;19.30;38.60;;;;;;5066953;28;20135;-56
2024/01/18 10:00:32;;;;;;;;;;;19.30;38.60;;;;;;5052901;28;19921;-53
2024/01/18 10:02:59;;;;;;;;;;;19.30;38.60;;;;;;5053859;28;19935;-51
2024/01/18 10:05:26;;;;;;;;;;;19.30;38.60;;;;;;5069338;28;20499;-56
2024/01/18 10:07:53;;;;;;;;;;;19.30;38.60;;;;;;5070037;28;19982;-55
2024/01/18 10:10:21;;;;;;;;;;;19.30;38.60;;;;;;5065980;28;19924;-53
2024/01/18 10:12:48;;;;;;;;;;;19.30;38.60;;;;;;5048727;28;19928;-54
2024/01/18 10:15:29;;;;;;;;;;;19.40;38.80;;;;;;5052086;28;19920;-56
2024/01/18 10:17:55;;;;;;;;;;;19.30;38.70;;;;;;5054929;28;19929;-56
2024/01/18 10:20:23;;;;;;;;;;;19.40;38.80;;;;;;5051408;28;19931;-54
2024/01/18 10:22:50;;;;;;;;;;;19.40;38.80;;;;;;5068048;28;19920;-57
2024/01/18 10:25:17;;;;;;;;;;;19.40;38.80;;;;;;5069453;28;19966;-56
2024/01/18 10:27:45;;;;;;;;;;;19.40;38.80;;;;;;5053448;28;20336;-53
2024/01/18 10:30:12;;;;;;;;;;;19.40;38.80;;;;;;5051481;28;20350;-57
2024/01/18 10:32:39;;;;;;;;;;;19.40;38.80;;;;;;5068689;28;19932;-57
2024/01/18 10:35:06;;;;;;;;;;;19.40;38.90;;;;;;5051018;28;19981;-52
2024/01/18 10:37:34;;;;;;;;;;;19.40;38.90;;;;;;5040923;28;19921;-55
2024/01/18 10:40:02;;;;;;;;;;;19.40;38.90;;;;;;5053247;28;19982;-59
2024/01/18 10:42:29;;;;;;;;;;;19.40;38.90;;;;;;5061101;28;19921;-57
2024/01/18 10:44:57;;;;;;;;;;;19.40;38.90;;;;;;5051612;28;19947;-58
2024/01/18 10:47:23;;;;;;;;;;;19.40;38.90;;;;;;5053614;28;19920;-58
2024/01/18 10:49:50;;;;;;;;;;;19.40;38.90;;;;;;5069567;28;19974;-57
2024/01/18 10:52:17;;;;;;;;;;;19.40;39.00;;;;;;5052794;28;19921;-57
2024/01/18 10:54:44;;;;;;;;;;;19.40;38.90;;;;;;5055774;28;20021;-57
2024/01/18 10:57:12;;;;;;;;;;;19.40;39.00;;;;;;5055970;28;19985;-57
2024/01/18 10:59:38;;;;;;;;;;;19.40;39.00;;;;;;5065869;28;19928;-56
2024/01/18 11:02:06;;;;;;;;;;;19.40;39.00;;;;;;5055353;28;20199;-53
2024/01/18 11:04:33;;;;;;;;;;;19.40;39.00;;;;;;5070675;28;19943;-51
2024/01/18 11:07:00;;;;;;;;;;;19.40;39.00;;;;;;5057143;28;20023;-53
2024/01/18 11:09:29;;;;;;;;;;;19.40;39.00;;;;;;5065896;28;19971;-54
2024/01/18 11:11:56;;;;;;;;;;;19.40;39.00;;;;;;5054008;28;19928;-52
2024/01/18 11:14:23;;;;;;;;;;;19.40;38.10;;;;;;5045159;28;19928;-57
2024/01/18 11:16:50;;;;;;;;;;;19.40;35.90;;;;;;5055427;28;19925;-54
2024/01/18 11:19:19;;;;;;;;;;;19.30;35.60;;;;;;5055536;28;19931;-55
2024/01/18 11:21:45;;;;;;;;;;;19.20;35.90;;;;;;5057498;28;19931;-56
2024/01/18 11:24:12;;;;;;;;;;;19.20;36.30;;;;;;5054546;28;20021;-56
2024/01/18 11:26:39;;;;;;;;;;;19.10;36.50;;;;;;5054970;28;19920;-56
2024/01/18 11:29:18;;;;;;;;;;;19.10;36.80;;;;;;5052422;28;19920;-56
2024/01/18 11:31:46;;;;;;;;;;;19.10;37.00;;;;;;5070901;28;19966;-54
2024/01/18 11:34:16;;;;;;;;;;;19.10;37.20;;;;;;5053235;28;20320;-54
2024/01/18 11:36:48;;;;;;;;;;;19.10;37.40;;;;;;5068276;28;19921;-56
2024/01/18 11:39:15;;;;;;;;;;;19.10;37.40;;;;;;5073227;28;19973;-57
2024/01/18 11:41:42;;;;;;;;;;;19.10;37.50;;;;;;5072488;28;19924;-57
2024/01/18 11:44:10;;;;;;;;;;;19.10;37.60;;;;;;5071909;28;19924;-57
2024/01/18 11:46:38;;;;;;;;;;;19.10;37.70;;;;;;5063386;28;20006;-55
2024/01/18 11:49:05;;;;;;;;;;;19.20;37.80;;;;;;5063752;28;19921;-56
2024/01/18 11:51:32;;;;;;;;;;;19.20;37.90;;;;;;5077914;28;19945;-57
2024/01/18 11:54:01;;;;;;;;;;;19.20;37.90;;;;;;5055834;28;19928;-57
2024/01/18 11:56:28;;;;;;;;;;;19.20;38.00;;;;;;5071109;28;19925;-57
2024/01/18 11:58:55;;;;;;;;;;;19.20;38.00;;;;;;5053886;28;19920;-58
2024/01/18 12:01:22;;;;;;;;;;;19.20;38.00;;;;;;5067848;28;19928;-57
2024/01/18 12:03:49;;;;;;;;;;;19.20;38.10;;;;;;5052921;28;19945;-58
2024/01/18 12:06:16;;;;;;;;;;;19.20;38.10;;;;;;5064610;28;19974;-57
2024/01/18 12:08:42;;;;;;;;;;;19.20;38.20;;;;;;5072857;28;19924;-59
2024/01/18 12:11:10;;;;;;;;;;;19.20;38.20;;;;;;5054300;28;19928;-58
2024/01/18 12:13:38;;;;;;;;;;;19.20;38.30;;;;;;5066729;28;19921;-58
2024/01/18 12:16:05;;;;;;;;;;;19.30;38.40;;;;;;5071891;28;19920;-57
2024/01/18 12:18:38;;;;;;;;;;;19.30;38.40;;;;;;5059928;28;20462;-57
2024/01/18 12:21:05;;;;;;;;;;;19.30;38.40;;;;;;5062084;28;19920;-57
2024/01/18 12:23:32;;;;;;;;;;;19.30;38.40;;;;;;5054553;28;19924;-56
2024/01/18 12:25:59;;;;;;;;;;;19.30;38.50;;;;;;5060302;28;20025;-57
2024/01/18 12:28:27;;;;;;;;;;;19.30;38.50;;;;;;5057759;28;19924;-57
2024/01/18 12:31:00;;;;;;;;;;;19.30;38.50;;;;;;5069082;28;19943;-58
2024/01/18 12:33:27;;;;;;;;;;;19.30;38.50;;;;;;5053861;28;20023;-57
2024/01/18 12:35:54;;;;;;;;;;;19.30;38.50;;;;;;5058898;28;19920;-56
2024/01/18 12:38:21;;;;;;;;;;;19.40;38.70;;;;;;5072183;28;19927;-56
2024/01/18 12:40:48;;;;;;;;;;;19.30;38.60;;;;;;5061478;28;19929;-58
2024/01/18 12:43:14;;;;;;;;;;;19.40;38.80;;;;;;5060842;28;19970;-57
2024/01/18 12:45:43;;;;;;;;;;;19.40;38.80;;;;;;5057110;28;19920;-58
2024/01/18 12:48:10;;;;;;;;;;;19.30;38.80;;;;;;5074402;28;20023;-57
2024/01/18 12:50:37;;;;;;;;;;;19.40;38.90;;;;;;5071676;28;19935;-58
2024/01/18 12:53:04;;;;;;;;;;;19.40;38.90;;;;;;5071871;28;19928;-57
2024/01/18 12:55:31;;;;;;;;;;;19.40;39.00;;;;;;5053691;28;19920;-57
2024/01/18 12:57:58;;;;;;;;;;;19.40;39.00;;;;;;5071108;28;19982;-58
2024/01/18 13:00:25;;;;;;;;;;;19.40;39.00;;;;;;5066234;28;19959;-58
2024/01/18 13:02:53;;;;;;;;;;;19.40;39.60;;;;;;5075102;28;19931;-58
2024/01/18 13:05:19;;;;;;;;;;;19.40;39.00;;;;;;5062218;28;19970;-56
2024/01/18 13:07:46;;;;;;;;;;;19.40;39.00;;;;;;5052380;28;19989;-58
2024/01/18 13:10:13;;;;;;;;;;;19.40;39.00;;;;;;5056678;28;19927;-57
2024/01/18 13:12:40;;;;;;;;;;;19.40;39.10;;;;;;5059582;28;19927;-58
2024/01/18 13:15:07;;;;;;;;;;;19.40;39.10;;;;;;5056160;28;19932;-58
2024/01/18 13:17:33;;;;;;;;;;;19.40;39.10;;;;;;5061616;28;19924;-57
2024/01/18 13:20:03;;;;;;;;;;;19.40;39.10;;;;;;5067585;28;19974;-55
2024/01/18 13:22:30;;;;;;;;;;;19.50;39.20;;;;;;5071397;28;19947;-56
2024/01/18 13:24:57;;;;;;;;;;;19.40;39.20;;;;;;5058674;28;19924;-58
2024/01/18 13:27:23;;;;;;;;;;;19.40;39.20;;;;;;5056945;28;19925;-58
2024/01/18 13:29:50;;;;;;;;;;;19.50;39.30;;;;;;5051458;28;19932;-58
2024/01/18 13:32:17;;;;;;;;;;;19.50;39.30;;;;;;5045206;28;19920;-58
2024/01/18 13:34:44;;;;;;;;;;;19.50;39.30;;;;;;5070483;28;19947;-58
2024/01/18 13:37:12;;;;;;;;;;;19.50;39.30;;;;;;5053330;28;19940;-58
2024/01/18 13:39:38;;;;;;;;;;;19.50;39.30;;;;;;5058416;28;19924;-56
2024/01/18 13:42:05;;;;;;;;;;;19.50;39.30;;;;;;5052490;28;19970;-58
2024/01/18 13:44:32;;;;;;;;;;;19.50;39.40;;;;;;5053175;28;19924;-57
2024/01/18 13:46:59;;;;;;;;;;;19.50;39.40;;;;;;5052181;28;19943;-58
2024/01/18 13:49:26;;;;;;;;;;;19.50;39.40;;;;;;5037882;28;20105;-58
2024/01/18 13:51:52;;;;;;;;;;;19.50;39.40;;;;;;5052996;28;19924;-59
2024/01/18 13:54:20;;;;;;;;;;;19.50;39.40;;;;;;5053938;28;19924;-58
2024/01/18 13:56:47;;;;;;;;;;;19.50;39.50;;;;;;5065315;28;19920;-57
2024/01/18 13:59:14;;;;;;;;;;;19.50;39.40;;;;;;5050453;28;20040;-57
2024/01/18 14:01:40;;;;;;;;;;;19.50;39.40;;;;;;5053074;28;19974;-58
2024/01/18 14:04:08;;;;;;;;;;;19.50;39.40;;;;;;5069261;28;19920;-57
2024/01/18 14:06:34;;;;;;;;;;;19.50;39.40;;;;;;5049661;28;19966;-56
2024/01/18 14:09:02;;;;;;;;;;;19.50;39.40;;;;;;5069840;28;19927;-58
2024/01/18 14:11:30;;;;;;;;;;;19.50;39.50;;;;;;5052434;28;19978;-58
2024/01/18 14:13:57;;;;;;;;;;;19.50;39.40;;;;;;5069022;28;19933;-48
2024/01/18 14:16:23;;;;;;;;;;;19.50;39.40;;;;;;5069679;28;19928;-53